createdAt,value
2018-12-04T00:01:52.939Z,11.00
2018-12-04T00:04:21.238Z,11.10
2018-12-04T00:06:49.524Z,11.00
2018-12-04T00:09:17.774Z,11.10
2018-12-04T00:11:46.021Z,11.10
2018-12-04T00:14:14.559Z,11.10
2018-12-04T00:16:42.997Z,11.10
2018-12-04T00:19:11.368Z,11.20
2018-12-04T00:21:39.638Z,11.10
2018-12-04T00:24:08.311Z,11.20
2018-12-04T00:26:36.643Z,11.20
2018-12-04T00:29:05.586Z,11.30
2018-12-04T00:31:34.169Z,11.40
2018-12-04T00:34:02.530Z,11.40
2018-12-04T00:36:30.742Z,11.30
2018-12-04T00:38:59.028Z,11.40
2018-12-04T00:41:27.344Z,11.40
2018-12-04T00:43:55.596Z,11.30
2018-12-04T00:46:23.766Z,11.10
2018-12-04T00:48:52.503Z,11.30
2018-12-04T00:51:20.721Z,11.30
2018-12-04T00:53:49.661Z,11.30
2018-12-04T00:56:18.075Z,11.20
2018-12-04T00:58:46.286Z,11.30
2018-12-04T01:01:14.817Z,11.30
2018-12-04T01:03:43.257Z,11.20
2018-12-04T01:06:11.824Z,11.20
2018-12-04T01:08:40.174Z,11.20
2018-12-04T01:11:08.542Z,11.20
2018-12-04T01:13:36.842Z,11.30
2018-12-04T01:16:05.557Z,11.10
2018-12-04T01:18:33.896Z,11.20
2018-12-04T01:21:02.369Z,11.10
2018-12-04T01:23:30.940Z,11.10
2018-12-04T01:25:59.378Z,11.10
2018-12-04T01:28:28.157Z,11.10
2018-12-04T01:30:56.632Z,11.10
2018-12-04T01:33:24.912Z,11.30
2018-12-04T01:35:53.179Z,11.30
2018-12-04T01:38:21.411Z,11.20
2018-12-04T01:40:49.672Z,11.20
2018-12-04T01:43:18.500Z,11.10
2018-12-04T01:45:47.265Z,11.20
2018-12-04T01:48:15.748Z,11.30
2018-12-04T01:50:44.230Z,11.30
2018-12-04T01:53:12.493Z,11.30
2018-12-04T01:55:40.761Z,11.40
2018-12-04T01:58:09.154Z,11.20
2018-12-04T02:00:37.542Z,11.30
2018-12-04T02:03:06.570Z,11.50
2018-12-04T02:05:35.385Z,11.40
2018-12-04T02:08:04.097Z,11.40
2018-12-04T02:10:32.756Z,11.40
2018-12-04T02:13:01.058Z,11.40
2018-12-04T02:15:29.311Z,11.40
2018-12-04T02:17:57.504Z,11.40
2018-12-04T02:20:25.847Z,11.40
2018-12-04T02:22:54.105Z,11.40
2018-12-04T02:25:22.514Z,11.60
2018-12-04T02:27:50.724Z,11.60
2018-12-04T02:30:18.993Z,11.60
2018-12-04T02:32:47.238Z,11.60
2018-12-04T02:52:31.647Z,11.40
2018-12-04T02:54:59.984Z,11.50
2018-12-04T02:57:28.166Z,11.40
2018-12-04T02:59:56.390Z,11.50
2018-12-04T03:02:24.597Z,11.50
2018-12-04T03:04:52.892Z,11.50
2018-12-04T03:07:21.329Z,11.50
2018-12-04T03:09:49.550Z,11.60
2018-12-04T03:12:17.849Z,11.50
2018-12-04T03:14:46.051Z,11.50
2018-12-04T03:17:14.359Z,11.50
2018-12-04T03:19:42.574Z,11.20
2018-12-04T03:22:10.967Z,11.20
2018-12-04T03:24:39.265Z,11.10
2018-12-04T03:27:07.522Z,11.10
2018-12-04T03:29:35.833Z,11.20
2018-12-04T03:32:04.264Z,11.10
2018-12-04T03:34:32.523Z,11.00
2018-12-04T03:37:00.876Z,10.80
2018-12-04T03:39:29.116Z,10.60
2018-12-04T03:41:57.427Z,10.60
2018-12-04T03:44:26.770Z,10.40
2018-12-04T03:46:55.165Z,10.40
2018-12-04T03:49:23.434Z,10.40
2018-12-04T03:51:51.697Z,10.40
2018-12-04T03:54:20.017Z,10.10
2018-12-04T03:56:48.363Z,10.10
2018-12-04T03:59:16.638Z,10.00
2018-12-04T04:01:44.843Z,9.90
2018-12-04T04:04:13.116Z,10.00
2018-12-04T04:06:41.433Z,10.00
2018-12-04T04:09:09.913Z,9.70
2018-12-04T04:11:38.190Z,9.90
2018-12-04T04:14:06.590Z,10.00
2018-12-04T04:16:34.850Z,10.10
2018-12-04T04:19:03.187Z,9.90
2018-12-04T04:21:31.374Z,9.80
2018-12-04T04:23:59.638Z,9.90
2018-12-04T04:26:27.998Z,9.70
2018-12-04T04:28:56.250Z,9.70
2018-12-04T04:31:24.503Z,9.80
2018-12-04T04:33:52.814Z,9.70
2018-12-04T04:36:21.088Z,9.90
2018-12-04T04:38:49.397Z,9.70
2018-12-04T04:41:17.677Z,9.60
2018-12-04T04:43:45.936Z,9.70
2018-12-04T04:46:14.568Z,9.80
2018-12-04T04:48:43.000Z,9.80
2018-12-04T04:51:11.225Z,9.70
2018-12-04T04:53:39.560Z,9.70
2018-12-04T04:56:07.873Z,9.80
2018-12-04T04:58:36.340Z,9.70
2018-12-04T05:01:04.577Z,9.60
2018-12-04T05:03:32.952Z,9.60
2018-12-04T05:06:01.161Z,9.50
2018-12-04T05:08:29.548Z,9.60
2018-12-04T05:10:57.755Z,9.50
2018-12-04T05:13:25.973Z,9.30
2018-12-04T05:15:54.211Z,9.40
2018-12-04T05:18:22.532Z,9.30
2018-12-04T05:20:50.931Z,9.30
2018-12-04T05:23:19.274Z,9.40
2018-12-04T05:25:47.597Z,9.30
2018-12-04T05:28:15.881Z,9.20
2018-12-04T05:30:44.147Z,9.20
2018-12-04T05:33:12.367Z,9.30
2018-12-04T05:35:40.731Z,9.30
2018-12-04T05:38:08.961Z,9.30
2018-12-04T05:40:37.241Z,9.40
2018-12-04T05:43:05.462Z,9.40
2018-12-04T05:45:34.612Z,9.40
2018-12-04T05:48:05.100Z,9.20
2018-12-04T05:50:33.613Z,9.40
2018-12-04T05:53:13.273Z,9.40
2018-12-04T05:55:41.487Z,9.20
2018-12-04T05:58:09.723Z,9.40
2018-12-04T06:00:38.154Z,9.40
2018-12-04T06:03:06.712Z,9.30
2018-12-04T06:05:35.130Z,9.20
2018-12-04T06:08:03.342Z,9.20
2018-12-04T06:10:31.731Z,9.20
2018-12-04T06:13:00.102Z,9.20
2018-12-04T06:15:29.295Z,9.10
2018-12-04T06:17:57.754Z,9.30
2018-12-04T06:20:26.413Z,9.40
2018-12-04T06:22:54.776Z,9.40
2018-12-04T06:25:23.255Z,9.20
2018-12-04T06:27:51.761Z,9.10
2018-12-04T06:30:20.011Z,9.20
2018-12-04T06:32:48.362Z,9.30
2018-12-04T06:35:17.100Z,9.10
2018-12-04T06:37:45.395Z,9.00
2018-12-04T06:40:13.786Z,9.00
2018-12-04T06:42:42.063Z,9.00
2018-12-04T06:45:10.498Z,9.00
2018-12-04T06:47:38.965Z,9.10
2018-12-04T06:50:09.610Z,8.80
2018-12-04T06:52:37.990Z,8.80
2018-12-04T06:55:07.361Z,8.80
2018-12-04T06:57:35.765Z,8.80
2018-12-04T07:00:05.005Z,8.90
2018-12-04T07:02:33.272Z,9.00
2018-12-04T07:05:01.594Z,8.90
2018-12-04T07:07:30.006Z,8.90
2018-12-04T07:09:58.331Z,9.00
2018-12-04T07:12:26.560Z,8.90
2018-12-04T07:14:54.940Z,8.90
2018-12-04T07:17:23.169Z,8.80
2018-12-04T07:19:51.479Z,8.70
2018-12-04T07:22:19.717Z,8.90
2018-12-04T07:24:47.965Z,8.80
2018-12-04T07:27:16.264Z,8.80
2018-12-04T07:29:44.478Z,8.90
2018-12-04T07:32:12.772Z,8.80
2018-12-04T07:34:41.095Z,8.70
2018-12-04T07:37:09.446Z,8.70
2018-12-04T07:39:37.710Z,8.60
2018-12-04T07:42:06.189Z,8.60
2018-12-04T07:44:34.658Z,8.50
2018-12-04T07:47:03.012Z,8.60
2018-12-04T07:49:31.325Z,8.60
2018-12-04T07:51:59.636Z,8.40
2018-12-04T07:54:27.850Z,8.60
2018-12-04T07:56:56.058Z,8.60
2018-12-04T07:59:24.744Z,8.60
2018-12-04T08:01:53.156Z,8.60
2018-12-04T08:04:21.471Z,8.70
2018-12-04T08:06:49.784Z,8.80
2018-12-04T08:09:18.030Z,8.90
2018-12-04T08:11:46.356Z,8.90
2018-12-04T08:14:14.637Z,8.60
2018-12-04T08:16:42.907Z,8.70
2018-12-04T08:19:11.330Z,8.70
2018-12-04T08:21:39.767Z,8.60
2018-12-04T08:24:08.120Z,8.80
2018-12-04T08:26:37.322Z,8.70
2018-12-04T08:29:05.655Z,8.70
2018-12-04T08:31:33.855Z,8.70
2018-12-04T08:34:02.197Z,8.80
2018-12-04T08:36:30.489Z,8.70
2018-12-04T08:38:58.882Z,8.60
2018-12-04T08:41:27.300Z,8.60
2018-12-04T08:43:55.658Z,8.70
2018-12-04T08:46:23.996Z,8.60
2018-12-04T08:48:52.285Z,8.50
2018-12-04T08:51:20.646Z,8.60
2018-12-04T08:53:48.917Z,8.50
2018-12-04T08:56:17.213Z,8.40
2018-12-04T08:58:45.493Z,8.40
2018-12-04T09:01:13.856Z,8.40
2018-12-04T09:03:42.393Z,8.50
2018-12-04T09:06:12.058Z,8.50
2018-12-04T09:08:42.977Z,8.60
2018-12-04T09:11:12.334Z,8.60
2018-12-04T09:13:43.652Z,8.60
2018-12-04T09:16:14.313Z,8.80
2018-12-04T09:18:44.647Z,8.80
2018-12-04T09:21:14.453Z,8.80
2018-12-04T09:23:42.821Z,8.90
2018-12-04T09:26:11.260Z,8.90
2018-12-04T09:28:39.740Z,9.10
2018-12-04T09:31:08.089Z,9.10
2018-12-04T09:33:36.553Z,9.20
2018-12-04T09:36:04.901Z,9.30
2018-12-04T09:38:33.221Z,9.30
2018-12-04T09:41:01.594Z,9.50
2018-12-04T09:43:29.993Z,9.60
2018-12-04T09:45:58.377Z,9.50
2018-12-04T09:48:26.685Z,9.70
2018-12-04T09:50:55.041Z,9.40
2018-12-04T09:53:25.340Z,9.40
2018-12-04T09:55:53.652Z,9.20
2018-12-04T09:58:22.038Z,9.40
2018-12-04T10:00:50.401Z,9.40
2018-12-04T10:03:18.749Z,9.10
2018-12-04T10:05:46.980Z,9.30
2018-12-04T10:08:15.330Z,9.40
2018-12-04T10:10:43.632Z,9.40
2018-12-04T10:13:11.799Z,9.40
2018-12-04T10:15:40.175Z,9.50
2018-12-04T10:18:08.409Z,9.60
2018-12-04T10:20:36.777Z,9.40
2018-12-04T10:23:05.120Z,9.70
2018-12-04T10:25:33.434Z,9.60
2018-12-04T10:28:01.776Z,9.60
2018-12-04T10:30:30.111Z,9.40
2018-12-04T10:32:58.383Z,9.50
2018-12-04T10:35:26.663Z,9.50
2018-12-04T10:37:54.880Z,9.40
2018-12-04T10:40:23.169Z,9.30
2018-12-04T10:42:51.425Z,9.30
2018-12-04T10:45:19.830Z,9.30
2018-12-04T10:47:48.023Z,9.40
2018-12-04T10:50:16.313Z,9.60
2018-12-04T10:52:44.613Z,9.70
2018-12-04T10:55:12.888Z,9.70
2018-12-04T10:57:41.225Z,9.30
2018-12-04T11:00:14.215Z,9.20
2018-12-04T11:02:47.165Z,9.30
2018-12-04T11:05:15.379Z,9.40
2018-12-04T11:07:43.743Z,9.20
2018-12-04T11:10:12.151Z,9.40
2018-12-04T11:12:40.538Z,9.50
2018-12-04T11:15:09.044Z,9.30
2018-12-04T11:17:37.349Z,9.40
2018-12-04T11:20:07.784Z,9.30
2018-12-04T11:22:36.100Z,9.20
2018-12-04T11:25:05.356Z,9.20
2018-12-04T11:27:33.677Z,9.20
2018-12-04T11:30:01.999Z,9.30
2018-12-04T11:32:30.296Z,9.30
2018-12-04T11:34:58.770Z,9.20
2018-12-04T11:37:26.960Z,9.10
2018-12-04T11:39:55.297Z,9.00
2018-12-04T11:42:23.561Z,9.00
2018-12-04T11:44:51.895Z,9.10
2018-12-04T11:47:20.077Z,9.10
2018-12-04T11:49:48.399Z,9.10
2018-12-04T11:52:16.762Z,9.20
2018-12-04T11:54:45.003Z,9.20
2018-12-04T11:57:13.338Z,9.40
2018-12-04T11:59:41.709Z,9.20
2018-12-04T12:02:10.909Z,9.00
2018-12-04T12:04:39.778Z,9.10
2018-12-04T12:08:37.327Z,9.00
2018-12-04T12:11:05.758Z,9.10
2018-12-04T12:13:34.054Z,9.10
2018-12-04T12:16:02.430Z,9.30
2018-12-04T12:18:30.698Z,9.30
2018-12-04T12:20:59.017Z,9.20
2018-12-04T12:23:27.212Z,9.20
2018-12-04T12:25:55.592Z,9.20
2018-12-04T12:28:23.982Z,9.20
2018-12-04T12:30:52.359Z,9.00
2018-12-04T12:33:20.591Z,9.20
2018-12-04T12:35:48.942Z,9.30
2018-12-04T12:38:17.370Z,9.30
2018-12-04T12:40:45.662Z,9.20
2018-12-04T12:43:13.997Z,9.10
2018-12-04T12:45:42.220Z,9.00
2018-12-04T12:48:10.483Z,9.00
2018-12-04T12:50:38.858Z,8.90
2018-12-04T12:53:07.609Z,9.00
2018-12-04T12:55:35.827Z,9.10
2018-12-04T12:58:04.134Z,9.00
2018-12-04T13:00:32.512Z,9.00
2018-12-04T13:03:00.854Z,8.90
2018-12-04T13:05:29.119Z,8.90
2018-12-04T13:07:57.322Z,8.80
2018-12-04T13:10:25.606Z,8.70
2018-12-04T13:12:53.878Z,8.90
2018-12-04T13:15:22.135Z,8.90
2018-12-04T13:17:50.755Z,9.00
2018-12-04T13:20:19.060Z,9.00
2018-12-04T13:22:47.457Z,9.00
2018-12-04T13:25:15.821Z,8.80
2018-12-04T13:27:44.082Z,8.90
2018-12-04T13:30:12.574Z,9.00
2018-12-04T13:32:40.877Z,8.90
2018-12-04T13:35:09.355Z,8.90
2018-12-04T13:37:37.879Z,8.90
2018-12-04T13:40:08.737Z,8.70
2018-12-04T13:42:37.043Z,8.70
2018-12-04T13:45:06.306Z,8.70
2018-12-04T13:47:34.790Z,8.50
2018-12-04T13:50:03.432Z,8.50
2018-12-04T13:52:31.779Z,8.60
2018-12-04T13:55:00.165Z,8.30
2018-12-04T13:57:28.537Z,8.40
2018-12-04T13:59:56.984Z,8.30
2018-12-04T14:02:25.275Z,8.50
2018-12-04T14:04:53.667Z,8.50
2018-12-04T14:07:21.958Z,8.40
2018-12-04T14:09:50.342Z,8.40
2018-12-04T14:12:18.809Z,8.40
2018-12-04T14:14:47.196Z,8.40
2018-12-04T14:17:15.620Z,8.30
2018-12-04T14:19:44.231Z,8.30
2018-12-04T14:22:16.132Z,8.30
2018-12-04T14:24:42.921Z,8.20
2018-12-04T14:27:11.282Z,8.00
2018-12-04T14:29:40.085Z,8.00
2018-12-04T14:32:08.696Z,8.00
2018-12-04T14:34:37.002Z,8.00
2018-12-04T14:37:05.830Z,8.10
2018-12-04T14:39:34.206Z,7.90
2018-12-04T14:42:02.546Z,7.80
2018-12-04T14:44:30.893Z,7.80
2018-12-04T14:46:59.312Z,7.80
2018-12-04T14:49:27.681Z,7.80
2018-12-04T14:51:56.352Z,7.80
2018-12-04T14:54:24.774Z,7.60
2018-12-04T14:56:53.262Z,7.70
2018-12-04T14:59:21.890Z,7.70
2018-12-04T15:01:50.174Z,7.80
2018-12-04T15:04:18.642Z,7.70
2018-12-04T15:06:46.999Z,7.90
2018-12-04T15:09:15.568Z,7.90
2018-12-04T15:11:44.043Z,7.90
2018-12-04T15:14:12.458Z,7.70
2018-12-04T15:16:40.823Z,7.60
2018-12-04T15:19:09.598Z,7.50
2018-12-04T15:21:37.993Z,7.40
2018-12-04T15:24:06.307Z,7.50
2018-12-04T15:26:36.857Z,7.50
2018-12-04T15:29:05.279Z,7.50
2018-12-04T15:31:34.008Z,7.50
2018-12-04T15:34:02.740Z,7.40
2018-12-04T15:36:31.212Z,7.40
2018-12-04T15:38:59.617Z,7.30
2018-12-04T15:41:28.170Z,7.30
2018-12-04T15:43:56.546Z,7.40
2018-12-04T15:46:24.952Z,7.20
2018-12-04T15:48:53.531Z,7.30
2018-12-04T15:51:21.916Z,7.30
2018-12-04T15:53:50.218Z,7.50
2018-12-04T15:56:18.844Z,7.50
2018-12-04T15:58:47.165Z,7.30
2018-12-04T16:01:15.580Z,7.30
2018-12-04T16:03:44.056Z,7.30
2018-12-04T16:06:12.550Z,7.10
2018-12-04T16:08:41.081Z,7.10
2018-12-04T16:11:09.367Z,7.20
2018-12-04T16:13:37.595Z,7.10
2018-12-04T16:16:06.564Z,7.20
2018-12-04T16:18:35.664Z,7.30
2018-12-04T16:21:04.018Z,7.30
2018-12-04T16:23:32.305Z,7.20
2018-12-04T16:26:00.625Z,7.10
2018-12-04T16:28:29.289Z,7.10
2018-12-04T16:30:58.063Z,7.10
2018-12-04T16:33:26.471Z,7.10
2018-12-04T16:35:54.922Z,7.20
2018-12-04T16:38:23.187Z,7.20
2018-12-04T16:40:51.517Z,7.20
2018-12-04T16:43:19.903Z,7.00
2018-12-04T16:45:48.290Z,7.10
2018-12-04T16:48:18.207Z,7.00
2018-12-04T16:50:46.627Z,7.10
2018-12-04T16:53:15.059Z,7.10
2018-12-04T16:55:43.313Z,7.00
2018-12-04T16:58:11.688Z,6.80
2018-12-04T17:00:39.995Z,6.80
2018-12-04T17:03:08.277Z,7.00
2018-12-04T17:05:36.669Z,6.90
2018-12-04T17:08:05.006Z,6.80
2018-12-04T17:10:33.348Z,6.70
2018-12-04T17:13:01.755Z,6.70
2018-12-04T17:15:30.190Z,6.60
2018-12-04T17:17:58.538Z,6.70
2018-12-04T17:20:26.924Z,6.70
2018-12-04T17:22:55.141Z,6.60
2018-12-04T17:25:23.380Z,6.60
2018-12-04T17:27:51.752Z,6.70
2018-12-04T17:30:20.253Z,6.60
2018-12-04T17:32:49.209Z,6.60
2018-12-04T17:35:17.754Z,6.50
2018-12-04T17:37:46.787Z,6.50
2018-12-04T17:40:15.084Z,6.50
2018-12-04T17:42:43.571Z,6.50
2018-12-04T17:45:11.867Z,6.40
2018-12-04T17:47:40.197Z,6.50
2018-12-04T17:50:10.170Z,6.30
2018-12-04T17:52:38.562Z,6.40
2018-12-04T17:55:07.611Z,6.40
2018-12-04T17:57:36.473Z,6.30
2018-12-04T18:00:05.661Z,6.30
2018-12-04T18:02:33.890Z,6.30
2018-12-04T18:05:02.486Z,6.30
2018-12-04T18:07:30.983Z,6.20
2018-12-04T18:09:59.474Z,6.30
2018-12-04T18:12:30.552Z,6.40
2018-12-04T18:14:59.285Z,6.40
2018-12-04T18:17:27.542Z,6.10
2018-12-04T18:19:55.899Z,6.20
2018-12-04T18:22:24.380Z,6.20
2018-12-04T18:24:52.580Z,6.20
2018-12-04T18:27:21.051Z,6.00
2018-12-04T18:29:49.503Z,5.90
2018-12-04T18:32:17.882Z,5.90
2018-12-04T18:34:46.147Z,5.70
2018-12-04T18:37:14.967Z,5.80
2018-12-04T18:39:43.342Z,5.90
2018-12-04T18:42:13.222Z,5.80
2018-12-04T18:44:41.722Z,5.80
2018-12-04T18:47:10.103Z,5.80
2018-12-04T18:49:38.806Z,5.80
2018-12-04T18:52:08.073Z,5.80
2018-12-04T18:54:36.827Z,5.70
2018-12-04T18:57:05.328Z,5.80
2018-12-04T18:59:33.595Z,5.80
2018-12-04T19:02:02.215Z,5.80
2018-12-04T19:04:30.645Z,5.60
2018-12-04T19:06:59.164Z,5.80
2018-12-04T19:09:27.964Z,6.00
2018-12-04T19:11:56.364Z,5.80
2018-12-04T19:31:40.868Z,5.80
2018-12-04T19:34:09.585Z,5.80
2018-12-04T19:36:37.960Z,5.70
2018-12-04T19:39:08.723Z,5.80
2018-12-04T19:41:37.199Z,5.70
2018-12-04T19:44:05.964Z,5.60
2018-12-04T19:46:34.689Z,5.60
2018-12-04T19:49:03.208Z,5.50
2018-12-04T19:51:31.622Z,5.60
2018-12-04T19:54:00.666Z,5.50
2018-12-04T19:56:29.084Z,5.40
2018-12-04T19:58:57.646Z,5.50
2018-12-04T20:01:27.046Z,5.50
2018-12-04T20:03:55.764Z,5.50
2018-12-04T20:06:24.289Z,5.40
2018-12-04T20:08:55.722Z,5.40
2018-12-04T20:11:24.184Z,5.30
2018-12-04T20:31:09.367Z,5.20
2018-12-04T20:33:37.851Z,5.30
2018-12-04T20:36:08.581Z,5.40
2018-12-04T20:38:37.152Z,5.40
2018-12-04T20:41:05.603Z,5.40
2018-12-04T20:43:34.515Z,5.30
2018-12-04T20:46:05.996Z,5.30
2018-12-04T20:48:34.660Z,5.20
2018-12-04T20:51:03.800Z,5.20
2018-12-04T20:53:32.206Z,5.20
2018-12-04T20:56:00.678Z,5.30
2018-12-04T20:58:29.186Z,5.20
2018-12-04T21:00:58.212Z,5.30
2018-12-04T21:03:26.812Z,5.30
2018-12-04T21:05:55.522Z,5.30
2018-12-04T21:08:24.181Z,5.40
2018-12-04T21:10:52.785Z,5.40
2018-12-04T21:13:21.364Z,5.40
2018-12-04T21:15:49.726Z,5.30
2018-12-04T21:18:18.376Z,5.20
2018-12-04T21:20:47.081Z,5.30
2018-12-04T21:23:15.855Z,5.20
2018-12-04T21:25:45.194Z,5.10
2018-12-04T21:28:19.343Z,4.90
2018-12-04T21:31:52.069Z,4.90
2018-12-04T21:38:41.009Z,5.10
2018-12-04T21:41:14.697Z,5.00
2018-12-04T21:44:49.515Z,5.00
2018-12-04T21:47:24.761Z,4.90
2018-12-04T21:49:54.214Z,5.00
2018-12-04T21:52:23.831Z,5.00
2018-12-04T22:12:09.715Z,4.90
2018-12-04T22:14:38.465Z,5.00
2018-12-04T22:17:07.008Z,5.00
2018-12-04T22:19:35.684Z,4.70
2018-12-04T22:22:04.133Z,4.70
2018-12-04T22:24:32.619Z,4.80
2018-12-04T22:27:00.967Z,4.80
2018-12-04T22:29:29.350Z,4.70
2018-12-04T22:31:57.919Z,4.60
2018-12-04T22:34:26.311Z,4.80
2018-12-04T22:36:54.618Z,4.80
2018-12-04T22:39:23.039Z,4.70
2018-12-04T22:41:51.390Z,4.70
2018-12-04T22:44:19.798Z,4.70
2018-12-04T22:46:48.273Z,4.80
2018-12-04T22:49:16.542Z,4.80
2018-12-04T22:51:44.939Z,4.80
2018-12-04T22:54:13.700Z,4.70
2018-12-04T22:56:42.104Z,4.70
2018-12-04T22:59:10.564Z,4.70
2018-12-04T23:01:40.650Z,4.70
2018-12-04T23:04:09.245Z,4.60
2018-12-04T23:06:37.907Z,4.60
2018-12-04T23:09:09.668Z,4.70
2018-12-04T23:11:38.568Z,4.70
2018-12-04T23:14:07.643Z,4.70
2018-12-04T23:16:36.102Z,4.60
2018-12-04T23:19:04.554Z,4.60
2018-12-04T23:21:33.242Z,4.70
2018-12-04T23:24:02.612Z,4.70
2018-12-04T23:26:31.375Z,4.80
2018-12-04T23:29:00.215Z,4.80
2018-12-04T23:31:28.695Z,4.60
2018-12-04T23:33:57.033Z,4.60
2018-12-04T23:36:25.448Z,4.50
2018-12-04T23:38:53.872Z,4.60
2018-12-04T23:41:22.278Z,4.50
2018-12-04T23:43:50.600Z,4.60
2018-12-04T23:46:18.955Z,4.60
2018-12-04T23:48:47.429Z,4.40
2018-12-04T23:51:15.772Z,4.60
2018-12-04T23:53:44.297Z,4.50
2018-12-04T23:56:12.615Z,4.50
2018-12-04T23:58:41.013Z,4.60
